ADDS METAR Data INFO
IDs: Format: Raw Decoded Include TAF

Data at: 0509 UTC 23 May 2017

KHDO 230451Z AUTO 03005KT 9SM CLR 19/18 A2995 RMK AO2 SLP128 T01940183 $
KHDO 230351Z AUTO 05003KT 7SM CLR 21/19 A2993 RMK AO2 SLP120 T02060189 $
KHDO 230251Z AUTO 06003KT 9SM CLR 21/19 A2992 RMK AO2 SLP119 T02110194 53012 $
KHDO 230151Z AUTO 10005KT 10SM CLR 23/20 A2988 RMK AO2 SLP105 T02280200 $
KHDO 230051Z AUTO 09009KT 10SM CLR 24/20 A2988 RMK AO2 SLP105 T02440200 $
KHDO 222351Z AUTO 10007KT 10SM CLR 26/20 A2988 RMK AO2 SLP105 T02610200 10272 20244 58004
KHDO 222322Z AUTO 12008KT 10SM BKN030 BKN075 26/20 A2989 RMK AO2 T02610200
KHDO 222251Z AUTO 14010KT 10SM OVC026 26/20 A2990 RMK AO2 SLP109 T02610200
KHDO 222228Z AUTO 12007KT 10SM BKN025 OVC070 27/20 A2989 RMK AO2 T02670200
KHDO 222151Z AUTO 09006KT 10SM FEW023 OVC070 27/20 A2990 RMK AO2 SLP110 T02670200
KHDO 222148Z AUTO 10008KT 10SM FEW023 OVC070 27/20 A2990 RMK AO2
KHDO 222140Z AUTO 07007KT 10SM BKN023 BKN070 27/20 A2990 RMK AO2 T02720200
KHDO 222132Z AUTO 08008KT 050V110 10SM SCT023 BKN070 27/20 A2990 RMK AO2 T02720200
KHDO 222109Z AUTO 09010KT 10SM BKN022 OVC075 27/20 A2991 RMK AO2 T02670200
KHDO 222051Z AUTO 09007KT 10SM SCT022 OVC070 27/20 A2992 RMK AO2 SLP116 T02720200 57019
KHDO 221951Z AUTO 06010KT 10SM FEW020 OVC065 26/20 A2994 RMK AO2 SLP124 T02610200
KHDO 221929Z AUTO 06009KT 10SM SCT018 OVC065 26/20 A2994 RMK AO2 T02560200
KHDO 221851Z AUTO 07005KT 10SM BKN017 OVC060 26/20 A2995 RMK AO2 SLP128 T02560200
KHDO 221751Z AUTO 05012G16KT 10SM OVC015 24/19 A2997 RMK AO2 SLP137 T02440194 10244 20189 58013
KHDO 221728Z AUTO 08008KT 10SM OVC015 24/19 A2998 RMK AO2 T02390194
KHDO 221651Z AUTO 07009KT 10SM OVC012 23/19 A2999 RMK AO2 SLP143 T02330194
KHDO 221551Z AUTO 05010KT 10SM OVC010 22/19 A3000 RMK AO2 SLP146 T02220189
KHDO 221531Z AUTO 05010KT 10SM OVC010 22/19 A3000 RMK AO2 T02170189
KHDO 221451Z AUTO 07010KT 10SM OVC008 22/19 A3001 RMK AO2 SLP150 T02170189 53004
KHDO 221404Z AUTO 04008KT 10SM OVC008 21/19 A3001 RMK AO2 T02060189
KHDO 221351Z AUTO 05009KT 10SM OVC007 21/18 A3000 RMK AO2 SLP149 T02060183
KHDO 221331Z AUTO 03007KT 10SM OVC007 20/18 A3000 RMK AO2 T02000183
KHDO 221251Z AUTO 04008KT 10SM OVC009 19/18 A3000 RMK AO2 SLP146 T01940178
KHDO 221151Z AUTO 03006KT 10SM OVC010 19/18 A3000 RMK AO2 SLP147 60000 70117 T01890178 10206 20189 55008
KHDO 221051Z AUTO 02006KT 10SM OVC011 19/17 A2999 RMK AO2 SLP146 T01890172
KHDO 220951Z AUTO 04009KT 10SM OVC012 19/18 A3000 RMK AO2 SLP148 T01890178
KHDO 220851Z AUTO 03009KT 10SM OVC010 19/18 A3002 RMK AO2 SLP155 60000 T01890178 50013
KHDO 220751Z AUTO 01005KT 9SM OVC011 20/19 A3004 RMK AO2 SLP159 T02000194
KHDO 220703Z AUTO 35005KT 10SM BKN011 21/20 A3004 RMK AO2 T02060200
KHDO 220651Z AUTO 04005KT 10SM SCT011 20/20 A3002 RMK AO2 PK WND 10031/0602 LTG DSNT SE AND S RAE13 SLP154 P0000 T02000200
KHDO 220553Z AUTO 10019G29KT 3SM RA BR OVC034 19/18 A2998 RMK AO2 PK WND 10026/0553 LTG DSNT S PRESFR P0000 T01890183
KHDO 220551Z AUTO 10021KT 2SM +RA BR OVC034 19/18 A2998 RMK AO2 PK WND 09029/0548 LTG DSNT S TSB18E51 PRESFR SLP140 P0090 60107 T01890178 10189 20172 402560172 58021
KHDO 220548Z AUTO 10022G29KT 1 1/2SM +TSRA BR OVC032 18/18 A2998 RMK AO2 PK WND 09029/0548 LTG DSNT S TSB18 PRESFR P0089
KHDO 220543Z AUTO 10023KT 1SM +TSRA BR BKN026 OVC044 18/18 A3000 RMK AO2 PK WND 10027/0543 LTG DSNT S TSB18 PRESFR P0086 T01830178
KHDO 220536Z AUTO 12014KT 1 1/4SM +TSRA BR BKN028 OVC042 18/17 A3006 RMK AO2 LTG DSNT S TSB18 P0068 T01780172
KHDO 220523Z AUTO 36010KT 2SM +TSRA BR FEW029 BKN039 OVC048 18/17 A3008 RMK AO2 LTG DSNT S TSB18 P0032 T01780167
KHDO 220517Z AUTO 35011KT 1 3/4SM +RA BR SCT029 BKN037 OVC060 18/17 A3007 RMK AO2 P0027 T01780167
KHDO 220513Z AUTO 36011KT 2SM VCTS +RA BR SCT029 BKN037 OVC060 18/17 A3006 RMK AO2 P0019 T01780167
KHDO 220507Z AUTO 01009KT 3SM VCTS +RA BR SCT029 SCT048 OVC060 18/17 A3007 RMK AO2 P0009 T01780167
KHDO 220451Z AUTO 01007KT 10SM -RA SCT065 BKN075 OVC110 18/17 A3007 RMK AO2 LTG DSNT W AND NW RAB43 SLP169 P0000 T01780167
KHDO 220351Z AUTO 03007KT 10SM FEW019 17/16 A3005 RMK AO2 SLP165 T01720161
KHDO 220251Z AUTO 35008KT 10SM CLR 18/18 A3005 RMK AO2 RAE16 PRESRR SLP163 P0000 60017 T01830183 53005
KHDO 220151Z AUTO 36010KT 9SM -RA BKN110 18/18 A3003 RMK AO2 TSB16E31 SLP158 P0013 T01780178
KHDO 220137Z AUTO 04012KT 6SM RA BR BKN100 18/18 A3000 RMK AO2 LTG DSNT NE AND SE TSB16E31 PRESFR P0011 T01780178
KHDO 220122Z AUTO 07010KT 7SM TSRA BKN100 OVC120 18/18 A3003 RMK AO2 LTG DSNT NE AND SE AND SW TSB16 P0008 T01830178
KHDO 220051Z AUTO 03014KT 6SM RA BR OVC110 18/18 A3002 RMK AO2 LTG DSNT NE AND S AND SW SLP153 P0004 T01830183
KHDO 220041Z AUTO 02014KT 6SM RA BR FEW060 FEW070 OVC110 18/18 A3001 RMK AO2 LTG DSNT ALQDS P0002 T01830183
KHDO 212351Z AUTO 01018G27KT 8SM VCTS -RA BKN036 BKN045 OVC060 19/18 A3003 RMK AO2 PK WND 01027/2347 LTG DSNT N AND NE AND S SLP158 P0007 60010 T01890178 10250 20189 51014
KHDO 212324Z AUTO 02017KT 5SM VCTS -RA BR BKN036 OVC047 19/17 A3003 RMK AO2 LTG DSNT NE AND W P0003 T01940172
KHDO 212251Z AUTO 02012G23KT 10SM -RA SCT035 BKN110 20/17 A3003 RMK AO2 PK WND 03030/2225 SLP155 P0000 T02000172
KHDO 212151Z AUTO 05013KT 10SM -RA FEW070 BKN090 BKN110 22/19 A2999 RMK AO2 LTG DSNT NW RAB2055 SLP144 P0000 T02170194
KHDO 212123Z AUTO 03012KT 10SM VCTS -RA FEW070 SCT090 BKN110 22/19 A2999 RMK AO2 LTG DSNT N AND NE RAB2055 P0000 T02170194
KHDO 212051Z AUTO 05011KT 10SM BKN095 22/19 A2999 RMK AO2 LTG DSNT N AND NE RAE20 SLP141 P0000 60003 T02220194 56019
KHDO 212026Z AUTO 04011KT 10SM FEW025 SCT034 BKN100 23/20 A3001 RMK AO2 LTG DSNT NW-E RAE20 P0000 T02280200
KHDO 212011Z AUTO 03009KT 10SM VCTS -RA SCT025 BKN110 23/21 A3001 RMK AO2 LTG DSNT ALQDS P0000 T02280206
KHDO 211951Z AUTO 06009KT 10SM -RA FEW033 SCT085 OVC110 23/21 A3002 RMK AO2 LTG DSNT ALQDS RAB1856 TSB15E40 SLP150 P0003 T02280206
KHDO 211946Z AUTO 06008KT 10SM VCTS -RA SCT033 SCT085 OVC110 23/21 A3002 RMK AO2 LTG DSNT E AND SE AND W RAB1856 TSB15E40 P0003
KHDO 211916Z AUTO 07004KT 10SM -TSRA SCT024 BKN033 OVC090 23/19 A3005 RMK AO2 LTG DSNT ALQDS RAB1856 TSB15 P0000 T02330194
KHDO 211911Z AUTO 06008KT 10SM VCTS -RA BKN024 BKN033 OVC090 23/19 A3004 RMK AO2 LTG DSNT ALQDS RAB1856 P0000 T02330194
KHDO 211903Z AUTO 08007KT 10SM -RA OVC022 24/19 A3005 RMK AO2 LTG DSNT SE-W RAB1856 P0000 T02390194
KHDO 211851Z AUTO 07008KT 10SM VCTS OVC021 24/19 A3005 RMK AO2 LTG DSNT SE-W SLP160 T02440189
KHDO 211844Z AUTO 08009KT 10SM VCTS OVC021 24/19 A3005 RMK AO2 LTG DSNT SE-W T02440189
KHDO 211751Z AUTO 09013KT 10SM OVC021 24/19 A3003 RMK AO2 SLP156 T02440189 10256 20228 58005


Page loaded:  05:09 UTC  |   10:09 PM Pacific  |   11:09 PM Mountain  |   12:09 AM Central  |   01:09 AM Eastern

 

ADVISORIES

FORECASTS

FORECASTS

OBSERVATIONS

USER TOOLS

ABOUT US